Latest Weather Observations for Bankstown

IDN60901

Issued at 3:41 pm EST Tuesday 28 July 2015 (issued every 10 minutes, with the page automatically refreshed every 10 minutes)

About weather observations | Map of Sydney area stations | Latest observations for Sydney area | Other Formats
Station Details ID: 066137 Name: BANKSTOWN AIRPORT AWS Lat: -33.92 Lon: 150.99 Height: 6.5 m
Data from the previous 72 hours. | See also: Recent months at Bankstown
Date/Time
EST
Tmp

°C
App
Tmp
°C
Dew
Point
°C
Rel
Hum
%
Delta-T

°C
Wind Press
QNH
hPa
Press
MSL
hPa
Rain
since
9 am
mm
Dir
 
Spd
km/h
Gust
km/h
Spd
kts
Gust
kts
28/03:30pm 16.0 10.3 0.6 35 6.6 ESE 20 26 11 14 1030.7 1030.7 0.0
28/03:00pm 15.8 10.3 0.4 35 6.5 SE 19 24 10 13 1030.8 1030.8 0.0
28/02:30pm 15.9 9.7 -0.3 33 6.9 SSE 22 30 12 16 1030.7 1030.7 0.0
28/02:00pm 16.3 11.4 -0.8 31 7.1 SSE 15 20 8 11 1030.6 1030.6 0.0
28/01:30pm 16.4 11.8 -0.8 31 7.2 SSW 13 24 7 13 1030.6 1030.6 0.0
28/01:00pm 16.6 12.1 -0.1 32 7.1 SSW 13 19 7 10 1031.0 1031.0 0.0
28/12:30pm 15.8 10.9 -0.8 32 6.9 SSW 15 20 8 11 1031.4 1031.4 0.0
28/12:00pm 15.2 9.9 -0.9 33 6.6 WSW 17 24 9 13 1031.9 1031.9 0.0
28/11:30am 14.4 9.1 -0.8 35 6.3 SW 17 22 9 12 1032.6 1032.6 0.0
28/11:00am 13.6 8.3 -0.4 38 5.7 WSW 17 22 9 12 1033.0 1033.0 0.0
28/10:30am 12.9 8.1 0.3 42 5.2 SW 15 24 8 13 1033.2 1033.2 0.0
28/10:00am 11.9 7.5 0.4 45 4.7 W 13 17 7 9 1033.4 1033.4 0.0
28/09:30am 10.7 6.3 0.2 48 4.3 W 13 20 7 11 1033.4 1033.4 0.0
28/09:00am 9.5 6.0 1.2 56 3.4 W 9 13 5 7 1033.2 1033.2 0.0
28/08:30am 7.6 4.7 1.5 65 2.5 NW 6 7 3 4 1033.2 1033.2 0.0
28/08:00am 6.3 4.0 2.8 78 1.4 NNW 4 7 2 4 1032.8 1032.8 0.0
28/07:30am 3.0 1.0 0.1 81 1.1 CALM 0 0 0 0 1032.5 1032.5 0.0
28/07:00am 2.1 -0.4 -0.8 81 1.0 NNW 2 6 1 3 1032.2 1032.2 0.0
28/06:30am 2.0 -0.1 -1.1 80 1.1 CALM 0 6 0 3 1031.7 1031.7 0.0
28/06:00am 2.9 0.5 -0.4 79 1.2 NNW 2 6 1 3 1031.3 1031.3 0.0
28/05:30am 4.5 1.3 0.6 76 1.5 NNW 7 9 4 5 1031.1 1031.1 0.0
28/05:00am 4.9 3.0 0.5 73 1.7 CALM 0 0 0 0 1030.8 1030.8 0.0
28/04:30am 2.9 -0.9 -1.1 75 1.4 WSW 9 9 5 5 1030.5 1030.5 0.0
28/04:00am 4.3 2.4 0.8 78 1.3 CALM 0 2 0 1 1030.3 1030.3 0.0
28/03:30am 4.5 0.8 -0.3 71 1.8 WNW 9 9 5 5 1030.1 1030.1 0.0
28/03:00am 5.2 1.4 -0.4 67 2.1 NW 9 13 5 7 1030.0 1030.0 0.0
28/02:30am 5.8 2.0 -0.7 63 2.4 NNW 9 13 5 7 1030.0 1030.0 0.0
28/02:00am 5.8 2.1 0.0 66 2.2 NNW 9 13 5 7 1030.0 1030.0 0.0
28/01:30am 6.2 2.3 -1.2 59 2.8 WNW 9 11 5 6 1029.9 1029.9 0.0
28/01:00am 6.8 2.3 -0.6 59 2.8 NNW 13 15 7 8 1029.9 1029.9 0.0
28/12:30am 6.9 2.6 -1.3 56 3.1 WNW 11 17 6 9 1029.8 1029.8 0.0
28/12:00am 7.3 3.8 -1.4 54 3.2 WSW 7 11 4 6 1029.6 1029.6 0.0
 
Date/Time
EST
Tmp

°C
App
Tmp
°C
Dew
Point
°C
Rel
Hum
%
Delta-T

°C
Wind Press
QNH
hPa
Press
MSL
hPa
Rain
since
9 am
mm
Dir
 
Spd
km/h
Gust
km/h
Spd
kts
Gust
kts
27/11:30pm 7.9 3.7 -1.1 53 3.4 WSW 11 15 6 8 1029.5 1029.5 0.0
27/11:00pm 8.3 3.7 -1.2 51 3.6 WSW 13 17 7 9 1029.5 1029.5 0.0
27/10:30pm 8.5 3.9 -1.3 50 3.8 WSW 13 20 7 11 1029.4 1029.4 0.0
27/10:00pm 8.7 3.3 -1.1 50 3.7 WSW 17 28 9 15 1029.2 1029.2 0.0
27/09:30pm 8.6 3.6 -1.2 50 3.7 SW 15 20 8 11 1029.0 1029.0 0.0
27/09:00pm 9.3 4.4 -0.8 49 3.9 WSW 15 20 8 11 1028.9 1028.9 0.0
27/08:30pm 9.6 4.6 -1.1 47 4.2 WSW 15 22 8 12 1028.6 1028.6 0.0
27/08:00pm 9.7 4.7 -1.1 47 4.2 WSW 15 22 8 12 1028.4 1028.4 0.0
27/07:30pm 10.3 4.9 -1.1 45 4.5 WSW 17 24 9 13 1028.3 1028.3 0.0
27/07:00pm 10.9 4.5 -1.5 42 4.8 WSW 22 39 12 21 1027.9 1027.9 0.0
27/06:30pm 11.3 4.5 -1.8 40 5.1 WSW 24 35 13 19 1027.4 1027.4 0.0
27/06:00pm 11.6 5.6 -1.9 39 5.2 WSW 20 26 11 14 1026.7 1026.7 0.0
27/05:30pm 11.5 6.4 -2.0 39 5.3 WSW 15 26 8 14 1026.5 1026.5 0.0
27/05:00pm 12.6 6.7 -2.4 35 5.8 WSW 19 24 10 13 1026.0 1026.0 0.0
27/04:30pm 13.2 7.2 -2.7 33 6.2 WSW 19 24 10 13 1025.8 1025.8 0.0
27/04:00pm 13.7 7.5 -3.1 31 6.5 WSW 20 30 11 16 1025.4 1025.4 0.0
27/03:30pm 14.2 7.7 -2.7 31 6.7 WSW 22 30 12 16 1025.1 1025.1 0.0
27/03:00pm 14.6 8.4 -3.2 29 6.9 WSW 20 30 11 16 1024.9 1024.9 0.0
27/02:30pm 14.5 7.9 -3.3 29 7.0 WSW 22 30 12 16 1024.6 1024.6 0.0
27/02:00pm 14.4 7.7 -3.9 28 7.0 SW 22 33 12 18 1024.4 1024.4 0.0
27/01:30pm 14.3 8.1 -3.5 29 6.9 SW 20 33 11 18 1024.5 1024.5 0.0
27/01:00pm 13.9 7.3 -3.4 30 6.7 WSW 22 32 12 17 1024.7 1024.7 0.0
27/12:30pm 13.2 5.3 -4.4 29 6.6 WSW 28 41 15 22 1025.1 1025.1 0.0
27/12:00pm 13.0 4.8 -3.7 31 6.3 WSW 30 43 16 23 1025.5 1025.5 0.0
27/11:30am 12.8 3.5 -5.2 28 6.6 WSW 35 48 19 26 1025.5 1025.5 0.0
27/11:13am 12.5 3.2 -5.0 29 6.4 WSW 35 54 19 29 1025.9 1025.9 0.0
27/11:00am 12.4 3.4 -6.0 27 6.6 WSW 33 48 18 26 1026.0 1026.0 0.0
27/10:30am 12.3 5.6 -4.3 31 6.2 W 22 33 12 18 1025.7 1025.7 0.0
27/10:00am 11.7 5.4 -3.6 34 5.7 WSW 20 26 11 14 1026.0 1026.0 0.0
27/09:30am 11.0 4.8 -3.1 37 5.3 W 20 28 11 15 1026.1 1026.1 0.0
27/09:00am 10.5 5.3 -2.5 40 4.9 WSW 15 19 8 10 1025.8 1025.8 0.0
27/08:30am 9.7 5.3 -2.6 42 4.6 W 11 20 6 11 1025.4 1025.4 0.0
27/08:00am 8.9 4.5 -2.1 46 4.1 WNW 11 17 6 9 1025.2 1025.2 0.0
27/07:30am 7.7 3.3 -2.3 49 3.7 WNW 11 19 6 10 1024.6 1024.6 0.0
27/07:00am 7.1 2.3 -2.3 51 3.4 WNW 13 19 7 10 1024.2 1024.2 0.0
27/06:30am 6.9 2.9 -2.3 52 3.4 NNW 9 11 5 6 1023.5 1023.5 0.0
27/06:00am 6.1 1.1 -1.1 60 2.7 WNW 15 20 8 11 1023.0 1023.0 0.0
27/05:30am 5.4 1.3 -2.7 56 2.9 NW 9 11 5 6 1022.7 1022.7 0.0
27/05:00am 5.9 1.2 -2.0 57 2.9 NNW 13 15 7 8 1022.2 1022.2 0.0
27/04:30am 6.9 2.5 -2.5 51 3.4 WNW 11 15 6 8 1022.1 1022.1 0.0
27/04:00am 7.1 1.6 -2.3 51 3.4 WNW 17 19 9 10 1021.8 1021.8 0.0
27/03:30am 6.9 1.8 -2.0 53 3.3 WNW 15 19 8 10 1021.8 1021.8 0.0
27/03:00am 8.1 3.7 -2.5 47 3.9 NNW 11 15 6 8 1021.7 1021.7 0.0
27/02:30am 8.4 3.6 -2.2 47 4.0 W 13 20 7 11 1021.1 1021.1 0.0
27/02:00am 7.9 2.8 -2.1 49 3.7 WNW 15 19 8 10 1021.1 1021.1 0.0
27/01:30am 9.4 3.3 -2.5 43 4.5 W 20 32 11 17 1021.3 1021.3 0.0
27/01:00am 10.2 4.6 -2.8 40 4.9 WSW 17 30 9 16 1021.5 1021.5 0.0
27/12:30am 9.3 4.6 -2.0 45 4.3 WSW 13 19 7 10 1021.5 1021.5 0.0
27/12:00am 9.0 5.4 -2.0 46 4.1 WSW 7 11 4 6 1021.3 1021.3 0.0
 
Date/Time
EST
Tmp

°C
App
Tmp
°C
Dew
Point
°C
Rel
Hum
%
Delta-T

°C
Wind Press
QNH
hPa
Press
MSL
hPa
Rain
since
9 am
mm
Dir
 
Spd
km/h
Gust
km/h
Spd
kts
Gust
kts
26/11:30pm 10.1 5.0 -1.9 43 4.6 WSW 15 20 8 11 1021.3 1021.3 0.0
26/11:00pm 10.4 4.4 -1.9 42 4.7 SW 20 30 11 16 1021.2 1021.2 0.0
26/10:30pm 10.9 5.1 -1.8 41 4.9 WSW 19 26 10 14 1020.7 1020.7 0.0
26/10:00pm 11.0 5.6 -1.7 41 4.9 SW 17 24 9 13 1020.3 1020.3 0.0
26/09:30pm 11.8 6.4 -1.0 41 5.1 SW 17 28 9 15 1020.0 1020.0 0.0
26/09:00pm 12.8 6.4 -1.5 37 5.7 WSW 22 30 12 16 1019.2 1019.2 0.0
26/08:30pm 13.0 7.4 0.1 41 5.4 WSW 19 26 10 14 1018.7 1018.7 0.0
26/08:00pm 13.7 8.1 1.0 42 5.4 WSW 20 35 11 19 1017.9 1017.9 0.0
26/07:30pm 13.7 8.8 1.7 44 5.2 WSW 17 24 9 13 1017.2 1017.2 0.0
26/07:00pm 14.1 10.0 2.4 45 5.2 WSW 13 19 7 10 1016.6 1016.6 0.0
26/06:30pm 15.1 9.3 2.3 42 5.7 WNW 22 37 12 20 1015.6 1015.6 0.0
26/06:00pm 16.0 8.7 2.4 40 6.1 WNW 30 44 16 24 1015.1 1015.1 0.0
26/05:41pm 16.5 9.5 2.2 38 6.4 W 28 46 15 25 1014.5 1014.5 0.0
26/05:30pm 16.4 9.7 1.7 37 6.5 W 26 39 14 21 1014.5 1014.5 0.0
26/05:00pm 17.3 10.2 1.3 34 7.1 WNW 28 46 15 25 1013.9 1013.9 0.0
26/04:30pm 18.1 10.2 1.2 32 7.5 WNW 32 46 17 25 1013.3 1013.3 0.0
26/04:00pm 18.7 10.2 0.8 30 7.9 WNW 35 54 19 29 1012.9 1012.9 0.0
26/03:47pm 18.8 10.8 0.4 29 8.1 W 32 54 17 29 1013.0 1013.0 0.0
26/03:30pm 18.7 12.0 1.2 31 7.8 W 26 41 14 22 1013.1 1013.1 0.0
26/03:09pm 19.4 11.9 0.9 29 8.3 W 30 48 16 26 1012.7 1012.7 0.0
26/03:00pm 19.4 10.9 0.9 29 8.3 W 35 52 19 28 1012.7 1012.7 0.0
26/02:39pm 19.8 12.7 1.3 29 8.4 WNW 28 46 15 25 1012.5 1012.5 0.0
26/02:30pm 19.6 11.4 0.6 28 8.5 WNW 33 46 18 25 1012.6 1012.6 0.0
26/02:00pm 20.2 13.8 1.1 28 8.6 W 24 37 13 20 1012.6 1012.6 0.0
26/01:30pm 20.1 13.3 1.0 28 8.6 W 26 41 14 22 1012.5 1012.5 0.0
26/01:00pm 19.6 13.5 0.6 28 8.5 NW 22 37 12 20 1012.8 1012.8 0.0
26/12:30pm 19.7 13.5 2.1 31 8.1 WNW 24 32 13 17 1013.4 1013.4 0.0
26/12:00pm 18.7 13.2 2.1 33 7.6 NW 20 26 11 14 1014.1 1014.1 0.0
26/11:30am 18.2 12.8 2.5 35 7.2 NNW 20 32 11 17 1014.4 1014.4 0.0
26/11:00am 17.4 12.2 2.6 37 6.7 NW 19 28 10 15 1015.0 1015.0 0.0
26/10:30am 17.0 11.8 3.3 40 6.3 NNW 20 30 11 16 1015.6 1015.6 0.0
26/10:00am 15.7 10.5 2.5 41 5.9 NNW 19 28 10 15 1016.1 1016.1 0.0
26/09:30am 15.0 11.7 4.4 49 4.9 NW 11 20 6 11 1016.3 1016.3 0.0
26/09:00am 10.4 9.5 6.0 74 2.0 CALM 0 0 0 0 1016.8 1016.8 0.0
26/08:30am 7.7 5.8 4.8 82 1.3 S 4 7 2 4 1017.0 1017.0 0.0
26/08:00am 6.2 4.9 3.9 85 1.0 CALM 0 0 0 0 1017.2 1017.2 0.0
26/07:30am 4.4 2.7 1.9 84 1.0 CALM 0 0 0 0 1017.3 1017.3 0.0
26/07:00am 5.0 3.4 2.7 85 0.9 CALM 0 0 0 0 1017.1 1017.1 0.0
26/06:30am 4.4 2.3 1.8 83 1.0 S 2 6 1 3 1016.8 1016.8 0.0
26/06:00am 5.4 3.8 2.4 81 1.2 CALM 0 0 0 0 1016.8 1016.8 0.0
26/05:30am 5.7 4.0 2.0 77 1.5 CALM 0 6 0 3 1016.7 1016.7 0.0
26/05:00am 10.2 7.0 5.0 70 2.3 NW 11 20 6 11 1016.5 1016.5 0.0
26/04:30am 7.0 4.0 1.1 66 2.4 NW 6 11 3 6 1016.8 1016.8 0.0
26/04:00am 11.0 7.1 3.3 59 3.4 NNW 13 19 7 10 1016.6 1016.6 0.0
26/03:30am 11.6 6.6 3.4 57 3.6 NNW 19 26 10 14 1016.5 1016.5 0.0
26/03:00am 11.4 7.6 3.7 59 3.4 NNW 13 20 7 11 1016.7 1016.7 0.0
26/02:30am 11.6 7.3 3.1 56 3.7 NNW 15 17 8 9 1017.4 1017.4 0.0
26/02:00am 11.6 7.7 3.4 57 3.6 NNW 13 17 7 9 1017.4 1017.4 0.0
26/01:30am 11.6 7.6 2.9 55 3.8 NNW 13 15 7 8 1017.5 1017.5 0.0
26/01:00am 12.0 8.0 2.7 53 4.0 N 13 17 7 9 1017.6 1017.6 0.0
26/12:30am 12.0 8.4 2.7 53 4.1 NNW 11 13 6 7 1018.0 1018.0 0.0
26/12:00am 12.2 7.7 2.4 51 4.2 NNW 15 20 8 11 1018.3 1018.3 0.0
 
Date/Time
EST
Tmp

°C
App
Tmp
°C
Dew
Point
°C
Rel
Hum
%
Delta-T

°C
Wind Press
QNH
hPa
Press
MSL
hPa
Rain
since
9 am
mm
Dir
 
Spd
km/h
Gust
km/h
Spd
kts
Gust
kts
25/11:30pm 12.5 8.4 2.4 50 4.4 NW 13 19 7 10 1017.9 1017.9 0.0
25/11:00pm 13.3 8.4 1.9 46 4.9 NNW 17 20 9 11 1017.8 1017.8 0.0
25/10:30pm 13.4 8.4 1.4 44 5.1 NNW 17 22 9 12 1018.0 1018.0 0.0
25/10:00pm 13.0 9.6 1.7 46 4.8 NNW 9 13 5 7 1018.1 1018.1 0.0
25/09:30pm 13.5 9.7 1.5 44 5.2 N 11 13 6 7 1018.2 1018.2 0.0
25/09:00pm 12.8 9.1 2.1 48 4.6 NNW 11 13 6 7 1018.3 1018.3 0.0
25/08:30pm 13.6 10.2 1.9 45 5.1 NW 9 11 5 6 1018.3 1018.3 0.0
25/08:00pm 13.9 10.1 1.5 43 5.3 N 11 13 6 7 1018.3 1018.3 0.0
25/07:30pm 14.0 10.6 2.0 44 5.2 NW 9 13 5 7 1017.8 1017.8 0.0
25/07:00pm 13.3 9.5 1.9 46 4.9 NW 11 13 6 7 1017.5 1017.5 0.0
25/06:30pm 14.6 11.2 1.8 42 5.6 NNW 9 11 5 6 1017.3 1017.3 0.0
25/06:00pm 15.0 11.1 1.2 39 6.0 N 11 15 6 8 1017.1 1017.1 0.0
25/05:30pm 15.7 11.8 1.1 37 6.3 NW 11 17 6 9 1016.6 1016.6 0.0
25/05:00pm 17.3 12.9 0.5 32 7.3 NW 13 19 7 10 1016.3 1016.3 0.0
25/04:30pm 18.3 12.7 0.0 29 8.0 NW 19 28 10 15 1015.8 1015.8 0.0
25/04:00pm 19.1 13.9 0.2 28 8.3 NW 17 22 9 12 1015.6 1015.6 0.0

Latest Capital City Observations: Canberra | Sydney | Melbourne | Brisbane | Adelaide | Perth | Hobart | Darwin

Other Formats:

Comma delimited format used in spreadsheet applications
http://www.bom.gov.au/fwo/IDN60901/IDN60901.94765.axf

JavaScript Object Notation format (JSON) in row-major order
http://www.bom.gov.au/fwo/IDN60901/IDN60901.94765.json